createdAt,value
2023-02-16T00:00:14.093Z,6.3
2023-02-16T00:10:14.974Z,6.2
2023-02-16T00:20:15.767Z,6.3
2023-02-16T00:30:16.322Z,6.3
2023-02-16T00:40:16.430Z,6.4
2023-02-16T00:50:16.654Z,6.3
2023-02-16T01:00:17.083Z,6.1
2023-02-16T01:10:17.140Z,6.1
2023-02-16T01:30:18.301Z,6
2023-02-16T01:50:19.418Z,5.7
2023-02-16T02:00:19.729Z,5.6
2023-02-16T02:20:21.530Z,5.4
2023-02-16T02:30:21.669Z,5.3
2023-02-16T02:40:22.651Z,5
2023-02-16T02:50:22.956Z,4.9
2023-02-16T03:00:23.590Z,4.9
2023-02-16T03:10:24.391Z,4.9
2023-02-16T03:20:25.337Z,4.8
2023-02-16T03:30:26.130Z,4.7
2023-02-16T03:40:26.548Z,4.5
2023-02-16T03:50:26.783Z,4.5
2023-02-16T04:30:29.272Z,4.9
2023-02-16T04:40:29.942Z,4.9
2023-02-16T04:50:30.457Z,4.4
2023-02-16T05:00:30.901Z,4.3
2023-02-16T05:10:31.756Z,4.5
2023-02-16T05:30:33.031Z,4.8
2023-02-16T05:40:33.829Z,4.5
2023-02-16T05:50:34.358Z,4.6
2023-02-16T06:10:35.329Z,4.6
2023-02-16T06:20:35.911Z,4.5
2023-02-16T06:30:36.668Z,4.5
2023-02-16T06:40:36.833Z,4.9
2023-02-16T06:50:37.078Z,5.2
2023-02-16T07:10:49.265Z,6
2023-02-16T07:20:39.216Z,6.1
2023-02-16T07:30:39.281Z,6.3
2023-02-16T07:40:40.086Z,6.4
2023-02-16T08:00:41.640Z,6.5
2023-02-16T08:10:42.663Z,6.6
2023-02-16T08:21:01.334Z,6.8
2023-02-16T08:30:43.587Z,7.1
2023-02-16T08:50:44.778Z,7.4
2023-02-16T09:00:45.781Z,7.6
2023-02-16T09:10:46.210Z,7.9
2023-02-16T09:20:48.802Z,8
2023-02-16T10:10:48.680Z,9.1
2023-02-16T10:20:49.167Z,9.6
2023-02-16T10:30:49.339Z,9.8
2023-02-16T10:50:51.752Z,9.7
2023-02-16T11:10:51.389Z,9.9
2023-02-16T11:20:52.308Z,10
2023-02-16T11:30:52.870Z,10.2
2023-02-16T11:40:53.162Z,10.3
2023-02-16T11:50:54.590Z,10.3
2023-02-16T12:00:54.323Z,10.3
2023-02-16T12:10:55.240Z,9.9
2023-02-16T12:30:56.082Z,9.4
2023-02-16T12:40:58.455Z,9.4
2023-02-16T12:50:58.090Z,9.6
2023-02-16T13:10:59.288Z,9.9
2023-02-16T13:20:59.798Z,10
2023-02-16T13:41:01.406Z,10.1
2023-02-16T13:51:02.461Z,10
2023-02-16T14:01:02.410Z,10
2023-02-16T14:11:03.308Z,9.9
2023-02-16T14:21:04.572Z,9.9
2023-02-16T14:31:05.025Z,9.9
2023-02-16T14:41:05.041Z,9.9
2023-02-16T14:51:05.604Z,9.7
2023-02-16T15:01:06.352Z,9.7
2023-02-16T15:11:07.120Z,10
2023-02-16T15:21:07.451Z,10.3
2023-02-16T15:41:08.730Z,10.5
2023-02-16T15:51:08.880Z,10.6
2023-02-16T16:01:09.324Z,10.7
2023-02-16T16:21:10.195Z,10.6
2023-02-16T16:31:10.652Z,10.6
2023-02-16T16:41:11.235Z,10.6
2023-02-16T17:01:11.849Z,10.5
2023-02-16T17:21:13.023Z,10.6
2023-02-16T17:41:14.588Z,10.8
2023-02-16T17:51:15.407Z,10.8
2023-02-16T18:01:16.577Z,10.9
2023-02-16T18:11:16.939Z,11.1
2023-02-16T18:31:18.752Z,10.9
2023-02-16T18:41:19.313Z,10.8
2023-02-16T18:51:20.126Z,10.5
2023-02-16T19:01:20.590Z,10
2023-02-16T19:11:21.549Z,9.6
2023-02-16T19:21:22.081Z,9.3
2023-02-16T19:41:22.446Z,9.1
2023-02-16T19:51:23.081Z,9
2023-02-16T20:11:25.047Z,8.8
2023-02-16T20:14:03.449Z,8.8
2023-02-16T20:21:34.152Z,8.8
2023-02-16T20:41:35.521Z,8.7
2023-02-16T20:51:35.616Z,8.7
2023-02-16T21:01:36.683Z,8.7
2023-02-16T21:11:37.198Z,8.8
2023-02-16T21:21:37.372Z,8.9
2023-02-16T21:31:38.030Z,8.8
2023-02-16T21:41:38.261Z,8.8
2023-02-16T21:51:38.560Z,8.7
2023-02-16T22:01:38.659Z,8.7
2023-02-16T22:11:39.237Z,8.7
2023-02-16T22:21:39.396Z,8.7
2023-02-16T22:31:40.267Z,8.8
2023-02-16T22:41:41.022Z,8.9
2023-02-16T23:11:42.355Z,9
2023-02-16T23:21:43.198Z,9.1
2023-02-16T23:31:44.151Z,9.1
2023-02-16T23:41:44.227Z,9.2
2023-02-16T23:51:45.145Z,9.2
